Mercedes — PCMC — position and weather

sailwx.info

Track history (hours):
 
Tides and Currents Weather Stations Pressure Air Temp Water Temp Dewpoint Dewpoint Depression Visibility Wind Speed Wind Dir Waves Ship Positions

Mercedes (Netherlands)

Brig, built 2005.

Last reported at 2018-May-23 21:59 UTC. Time now 2018-May-23 22:27 UTC.
Position N 53°33' E 008°34'.

Length 47 m; draft 3.4 m.

Type: Sailing vessel. MMSI: 244595000.

Date/timePositionNaut miles runAvg speedWind from/ knotsBaromVisibWave heightAir tempDewpointWater temp
2018-May-23 21:59N 53°33' E 008°34'0 0.0
2018-May-23 21:29N 53°33' E 008°34'0 0.0
2018-May-23 20:59N 53°33' E 008°34'0 0.0
2018-May-23 20:29N 53°33' E 008°34'0 0.0
2018-May-23 19:59N 53°33' E 008°34'0 0.0
2018-May-23 19:29N 53°33' E 008°34'0 0.0
2018-May-23 18:59N 53°33' E 008°34'0 0.0
2018-May-23 18:29N 53°33' E 008°34'0 0.0
2018-May-23 18:00N 53°33' E 008°34'0 0.9
2018-May-23 17:30N 53°33' E 008°34'4 8.3
2018-May-23 17:00N 53°36' E 008°30'510.4
2018-May-23 16:30N 53°39' E 008°24'58 8.5
2018-May-23 09:43N 53°47' E 006°47'11 6.8
2018-May-23 08:06N 53°45' E 006°28'9 7.1
2018-May-23 06:49N 53°42' E 006°14'3 7.4
2018-May-23 06:22N 53°41' E 006°08'13 7.6
2018-May-23 04:40N 53°37' E 005°48'2 7.9
2018-May-23 04:29N 53°37' E 005°45'4 8.0
2018-May-23 04:00N 53°35' E 005°39'4 8.1
2018-May-23 03:30N 53°34' E 005°33'4 8.6
2018-May-23 03:00N 53°33' E 005°26'4 8.8
2018-May-23 02:30N 53°31' E 005°19'4 8.8
2018-May-23 02:00N 53°30' E 005°12'4 8.8
2018-May-23 01:30N 53°29' E 005°05'4 8.6
2018-May-23 01:00N 53°27' E 004°58'5 9.0
2018-May-23 00:29N 53°25' E 004°51'4 8.8
2018-May-22 23:59N 53°23' E 004°44'4 9.1
2018-May-22 23:30N 53°19' E 004°41'5 9.6
2018-May-22 23:00N 53°15' E 004°38'5 9.7
2018-May-22 22:29N 53°10' E 004°34'5 9.8
2018-May-22 22:00N 53°06' E 004°32'510.1
2018-May-22 21:29N 53°01' E 004°31'5 9.8
2018-May-22 20:58N 52°56' E 004°29'4 9.5
2018-May-22 20:30N 52°51' E 004°27'7 8.9
2018-May-22 19:46N 52°45' E 004°23'3 8.6
2018-May-22 19:26N 52°43' E 004°22'4 8.3
2018-May-22 18:57N 52°39' E 004°20'4 8.1
2018-May-22 18:28N 52°35' E 004°18'4 8.2
2018-May-22 18:00N 52°31' E 004°18'4 7.3
2018-May-22 17:30N 52°28' E 004°16'4 7.4
2018-May-22 17:00N 52°24' E 004°16'4 7.1
2018-May-22 16:30N 52°21' E 004°16'3 6.9
2018-May-22 16:00N 52°17' E 004°16'4 7.0
2018-May-22 15:30N 52°14' E 004°15'3 7.0
2018-May-22 15:00N 52°10' E 004°15'4 7.6
2018-May-22 14:30N 52°06' E 004°15'1 1.2
2018-May-22 14:00N 52°06' E 004°16'0 0.0
2018-May-22 13:27N 52°06' E 004°16'0 0.0
2018-May-22 13:00N 52°06' E 004°16'0 0.0
2018-May-22 12:21N 52°06' E 004°16'0 0.0
2018-May-22 12:00N 52°06' E 004°16'0 0.0
2018-May-22 11:27N 52°06' E 004°16'0 0.0
2018-May-22 11:00N 52°06' E 004°16'0 0.0
2018-May-22 10:21N 52°06' E 004°16'0 0.0
2018-May-22 09:57N 52°06' E 004°16'0 0.0
2018-May-22 09:30N 52°06' E 004°16'0 0.0
2018-May-22 08:57N 52°06' E 004°16'0 0.0
2018-May-22 08:21N 52°06' E 004°16'0 0.0
2018-May-22 07:36N 52°06' E 004°16'0 0.1
2018-May-22 07:30N 52°06' E 004°16'0 0.0
2018-May-22 06:54N 52°06' E 004°16'0 0.0
2018-May-22 06:30N 52°06' E 004°16'0 0.0
2018-May-22 05:57N 52°06' E 004°16'0 0.0
2018-May-22 05:30N 52°06' E 004°16'0 0.0
2018-May-22 05:00N 52°06' E 004°16'0 0.0
2018-May-22 04:30N 52°06' E 004°16'0 0.0
2018-May-22 03:51N 52°06' E 004°16'0 0.0
2018-May-22 03:30N 52°06' E 004°16'0 0.0
2018-May-22 03:00N 52°06' E 004°16'0 0.0
2018-May-22 02:30N 52°06' E 004°16'0 0.0
2018-May-22 02:00N 52°06' E 004°16'0 0.0
2018-May-22 01:30N 52°06' E 004°16'0 0.0
2018-May-22 01:00N 52°06' E 004°16'0 0.0
2018-May-22 00:24N 52°06' E 004°16'0 0.0
2018-May-21 23:57N 52°06' E 004°16'0 0.0
2018-May-21 23:30N 52°06' E 004°16'0 0.0
2018-May-21 23:00N 52°06' E 004°16'0 0.0
2018-May-21 22:30N 52°06' E 004°16'0 0.0
2018-May-21 22:00N 52°06' E 004°16'0 0.0
2018-May-21 21:24N 52°06' E 004°16'0 0.0
2018-May-21 20:57N 52°06' E 004°16'0 0.0
2018-May-21 20:21N 52°06' E 004°16'0 0.0
2018-May-21 19:57N 52°06' E 004°16'0 0.0
2018-May-21 19:27N 52°06' E 004°16'0 0.0
2018-May-21 18:57N 52°06' E 004°16'0 0.0
2018-May-21 18:30N 52°06' E 004°16'0 0.0
2018-May-21 18:00N 52°06' E 004°16'0 0.0
2018-May-21 17:30N 52°06' E 004°16'0 0.0
2018-May-21 16:57N 52°06' E 004°16'0 0.0
2018-May-21 16:27N 52°06' E 004°16'0 0.0
2018-May-21 15:57N 52°06' E 004°16'0 0.1
2018-May-21 15:29N 52°06' E 004°16'0 0.0
2018-May-21 14:56N 52°06' E 004°16'0 0.0
2018-May-21 14:20N 52°06' E 004°16'0 0.0
2018-May-21 13:53N 52°06' E 004°16'0 0.0
2018-May-21 13:30N 52°06' E 004°16'0 0.1
2018-May-21 13:00N 52°06' E 004°16'3 5.5
2018-May-21 12:30N 52°07' E 004°12'3 6.3
2018-May-21 12:00N 52°06' E 004°07'0 0.6
2018-May-21 11:30N 52°07' E 004°06'2 4.3
2018-May-21 11:00N 52°07' E 004°10'2 3.4
2018-May-21 10:30N 52°08' E 004°12'1 1.1
2018-May-21 10:00N 52°08' E 004°13'1 1.6
2018-May-21 09:30N 52°07' E 004°14'2 2.8
2018-May-21 08:54N 52°06' E 004°16'0 0.0
2018-May-21 08:30N 52°06' E 004°16'0 0.0
2018-May-21 07:57N 52°06' E 004°16'0 0.0
2018-May-21 07:30N 52°06' E 004°16'0 0.0
2018-May-21 06:54N 52°06' E 004°16'0 0.0
2018-May-21 06:30N 52°06' E 004°16'0 0.0
2018-May-21 06:00N 52°06' E 004°16'0 0.0
2018-May-21 05:30N 52°06' E 004°16'0 0.0
2018-May-21 04:54N 52°06' E 004°16'0 0.0
2018-May-21 04:30N 52°06' E 004°16'0 0.0
2018-May-21 03:54N 52°06' E 004°16'0 0.0
2018-May-21 03:30N 52°06' E 004°16'0 0.0
2018-May-21 03:00N 52°06' E 004°16'0 0.0
2018-May-21 02:30N 52°06' E 004°16'0 0.0
2018-May-21 01:48N 52°06' E 004°16'0 0.0
2018-May-21 01:30N 52°06' E 004°16'0 0.0
2018-May-21 01:00N 52°06' E 004°16'0 0.0
2018-May-21 00:27N 52°06' E 004°16'0 0.0
2018-May-20 23:51N 52°06' E 004°16'0 0.0
2018-May-20 23:24N 52°06' E 004°16'0 0.0
2018-May-20 22:47N 52°06' E 004°16'0 0.0
2018-May-20 22:23N 52°06' E 004°16'0 0.0
2018-May-20 21:57N 52°06' E 004°16'0 0.0
2018-May-20 21:26N 52°06' E 004°16'0 0.0
2018-May-20 20:59N 52°06' E 004°16'0 0.0
2018-May-20 20:29N 52°06' E 004°16'0 0.0
2018-May-20 19:59N 52°06' E 004°16'0 0.0
2018-May-20 19:17N 52°06' E 004°16'0 0.0
2018-May-20 18:56N 52°06' E 004°16'0 0.0
2018-May-20 18:29N 52°06' E 004°16'0 0.0
2018-May-20 17:51N 52°06' E 004°16'0 0.0
2018-May-20 17:23N 52°06' E 004°16'0 0.0
2018-May-20 16:59N 52°06' E 004°16'0 0.0
2018-May-20 16:29N 52°06' E 004°16'0 0.0
2018-May-20 15:59N 52°06' E 004°16'0 0.1
2018-May-20 15:29N 52°06' E 004°16'0 0.0
2018-May-20 14:59N 52°06' E 004°16'0 0.0
2018-May-20 14:26N 52°06' E 004°16'0 0.0
2018-May-20 13:59N 52°06' E 004°16'0 0.0
2018-May-20 13:26N 52°06' E 004°16'0 0.0
2018-May-20 13:00N 52°06' E 004°16'2 4.9
2018-May-20 12:30N 52°06' E 004°12'3 6.4
2018-May-20 12:00N 52°04' E 004°08'2 4.1
2018-May-20 11:30N 52°03' E 004°05'2 3.3
2018-May-20 11:00N 52°05' E 004°03'3 5.5
2018-May-20 10:30N 52°05' E 004°08'3 5.0
2018-May-20 10:00N 52°06' E 004°11'2 3.9
2018-May-20 09:30N 52°07' E 004°14'2 3.1
2018-May-20 08:58N 52°06' E 004°16'0 0.0
2018-May-20 08:31N 52°06' E 004°16'0 0.0
2018-May-20 08:01N 52°06' E 004°16'0 0.0
2018-May-20 07:28N 52°06' E 004°16'0 0.0
2018-May-20 07:00N 52°06' E 004°16'0 0.0
2018-May-20 06:24N 52°06' E 004°16'0 0.0
2018-May-20 06:00N 52°06' E 004°16'0 0.0
2018-May-20 05:30N 52°06' E 004°16'0 0.0
2018-May-20 05:00N 52°06' E 004°16'0 0.0
2018-May-20 04:30N 52°06' E 004°16'0 0.0
2018-May-20 04:00N 52°06' E 004°16'0 0.0
2018-May-20 03:30N 52°06' E 004°16'0 0.0
2018-May-20 03:00N 52°06' E 004°16'0 0.0
2018-May-20 02:30N 52°06' E 004°16'0 0.0
2018-May-20 02:00N 52°06' E 004°16'0 0.0
2018-May-20 01:30N 52°06' E 004°16'0 0.0
2018-May-20 01:00N 52°06' E 004°16'0 0.0
2018-May-20 00:30N 52°06' E 004°16'0 0.0
2018-May-19 23:57N 52°06' E 004°16'0 0.0
2018-May-19 23:30N 52°06' E 004°16'0 0.0
2018-May-19 22:54N 52°06' E 004°16'0 0.0
2018-May-19 22:30N 52°06' E 004°16'0 0.0
2018-May-19 22:00N 52°06' E 004°16'0 0.0
2018-May-19 21:30N 52°06' E 004°16'0 0.0
2018-May-19 21:00N 52°06' E 004°16'0 0.0
2018-May-19 20:30N 52°06' E 004°16'0 0.0
2018-May-19 20:00N 52°06' E 004°16'0 0.0
2018-May-19 19:30N 52°06' E 004°16'0 0.0
2018-May-19 19:00N 52°06' E 004°16'0 0.1
2018-May-19 18:27N 52°06' E 004°16'0 0.1
2018-May-19 18:00N 52°06' E 004°16'0 0.0
2018-May-19 17:30N 52°06' E 004°16'0 0.0
2018-May-19 16:57N 52°06' E 004°16'0 0.0
2018-May-19 16:30N 52°06' E 004°16'0 0.0
2018-May-19 16:00N 52°06' E 004°16'0 0.1
2018-May-19 15:30N 52°06' E 004°16'0 0.0
2018-May-19 15:00N 52°06' E 004°16'0 0.0
2018-May-19 14:27N 52°06' E 004°16'0 0.0
2018-May-19 14:00N 52°06' E 004°16'0 0.0
2018-May-19 13:30N 52°06' E 004°16'0 0.2
2018-May-19 13:00N 52°06' E 004°16'3 5.8
2018-May-19 12:30N 52°06' E 004°11'3 6.8
2018-May-19 12:00N 52°03' E 004°07'2 4.1
2018-May-19 11:31N 52°02' E 004°06'2 4.8
2018-May-19 11:00N 52°03' E 004°08'2 4.6
2018-May-19 10:30N 52°05' E 004°11'2 3.9
2018-May-19 10:00N 52°06' E 004°13'1 2.0
2018-May-19 09:30N 52°07' E 004°14'1 2.6
2018-May-19 08:56N 52°06' E 004°16'0 0.0
2018-May-19 08:29N 52°06' E 004°16'0 0.0
2018-May-19 07:53N 52°06' E 004°16'0 0.0
2018-May-19 07:29N 52°06' E 004°16'0 0.0
2018-May-19 06:56N 52°06' E 004°16'0 0.0
2018-May-19 04:47N 52°06' E 004°16'0 0.0
2018-May-19 04:26N 52°06' E 004°16'0 0.0
2018-May-19 03:59N 52°06' E 004°16'0 0.0
2018-May-19 03:26N 52°06' E 004°16'0 0.0
2018-May-19 02:53N 52°06' E 004°16'0 0.0
2018-May-19 02:29N 52°06' E 004°16'0 0.0
2018-May-19 01:41N 52°06' E 004°16'0 0.0
2018-May-19 01:29N 52°06' E 004°16'0 0.0
2018-May-19 00:47N 52°06' E 004°16'0 0.0
2018-May-19 00:23N 52°06' E 004°16'0 0.0
2018-May-18 23:59N 52°06' E 004°16'0 0.0
2018-May-18 23:29N 52°06' E 004°16'0 0.0
2018-May-18 22:50N 52°06' E 004°16'0 0.0
2018-May-18 22:29N 52°06' E 004°16'0 0.0
2018-May-18 21:53N 52°06' E 004°16'0 0.0
2018-May-18 21:26N 52°06' E 004°16'0 0.0
2018-May-18 20:56N 52°06' E 004°16'0 0.0
2018-May-18 20:23N 52°06' E 004°16'0 0.0
2018-May-18 19:53N 52°06' E 004°16'0 0.0
2018-May-18 19:29N 52°06' E 004°16'0 0.0
2018-May-18 18:56N 52°06' E 004°16'0 0.0
2018-May-18 18:23N 52°06' E 004°16'0 0.0
2018-May-18 17:59N 52°06' E 004°16'0 0.0
2018-May-18 17:20N 52°06' E 004°16'0 0.0
2018-May-18 16:59N 52°06' E 004°16'0 0.0
2018-May-18 16:29N 52°06' E 004°16'0 0.0
2018-May-18 15:56N 52°06' E 004°16'0 0.0
2018-May-18 15:29N 52°06' E 004°16'0 0.0
2018-May-18 14:47N 52°06' E 004°16'0 0.0
2018-May-18 14:11N 52°06' E 004°16'0 0.0
2018-May-18 13:59N 52°06' E 004°16'0 0.0
2018-May-18 13:29N 52°06' E 004°16'0 0.0
2018-May-18 12:44N 52°06' E 004°16'0 0.0
2018-May-18 12:26N 52°06' E 004°16'0 0.0
2018-May-18 11:35N 52°06' E 004°16'0 0.1
2018-May-18 11:29N 52°06' E 004°16'0 0.0
2018-May-18 10:56N 52°06' E 004°16'0 0.0
2018-May-18 10:29N 52°06' E 004°16'0 0.0
2018-May-18 09:59N 52°06' E 004°16'0 0.0
2018-May-18 09:29N 52°06' E 004°16'0 0.0
2018-May-18 08:59N 52°06' E 004°16'0 0.0
2018-May-18 08:29N 52°06' E 004°16'0 0.0
2018-May-18 07:59N 52°06' E 004°16'0 0.0
2018-May-18 07:29N 52°06' E 004°16'0 0.0
2018-May-18 06:59N 52°06' E 004°16'0 0.0
2018-May-18 06:29N 52°06' E 004°16'0 0.0
2018-May-18 05:53N 52°06' E 004°16'0 0.0
2018-May-18 05:29N 52°06' E 004°16'0 0.0
2018-May-18 04:59N 52°06' E 004°16'0 0.0
2018-May-18 04:28N 52°06' E 004°16'0 0.0
2018-May-18 03:58N 52°06' E 004°16'0 0.0
2018-May-18 03:28N 52°06' E 004°16'0 0.0
2018-May-18 03:00N 52°06' E 004°16'3 6.7
2018-May-18 02:30N 52°09' E 004°14'5 9.3
2018-May-18 02:00N 52°13' E 004°10'5 9.5
2018-May-18 01:30N 52°17' E 004°08'5 9.8
2018-May-18 01:00N 52°22' E 004°06'5 9.2
2018-May-18 00:30N 52°27' E 004°08'6 9.4
2018-May-17 23:50N 52°33' E 004°06'6 9.8
2018-May-17 23:11N 52°39' E 004°02'97 8.5
2018-May-17 11:47N 53°46' E 005°58'82 7.7
2018-May-17 01:14N 54°01' E 008°14'2 6.8
2018-May-17 01:00N 54°01' E 008°17'3 5.7
2018-May-17 00:25N 53°60' E 008°22'2 5.3
2018-May-16 23:58N 53°59' E 008°26'2 4.9
2018-May-16 23:29N 53°59' E 008°30'3 5.5
2018-May-16 23:00N 53°58' E 008°35'2 4.9
2018-May-16 22:30N 53°57' E 008°38'2 4.2
2018-May-16 22:00N 53°55' E 008°41'2 5.0
2018-May-16 21:30N 53°53' E 008°43'4 7.1
2018-May-16 21:01N 53°51' E 008°47'510.1
2018-May-16 20:30N 53°51' E 008°56'611.3
2018-May-16 20:00N 53°53' E 009°05'611.4
2018-May-16 19:30N 53°53' E 009°15'510.6
2018-May-16 19:00N 53°50' E 009°22'510.4
2018-May-16 18:30N 53°45' E 009°25'510.2
2018-May-16 18:00N 53°41' E 009°30'5 9.9
2018-May-16 17:30N 53°37' E 009°35'5 9.8
2018-May-16 17:00N 53°34' E 009°42'5 9.4
2018-May-16 16:30N 53°33' E 009°49'4 6.8
2018-May-16 15:59N 53°33' E 009°55'0 0.0
2018-May-16 15:29N 53°33' E 009°55'0 0.0
2018-May-16 14:59N 53°33' E 009°55'0 0.0
2018-May-16 14:29N 53°33' E 009°55'0 0.0
2018-May-16 13:59N 53°33' E 009°55'0 0.0
2018-May-16 13:29N 53°33' E 009°55'0 0.0
2018-May-16 12:59N 53°33' E 009°55'0 0.0
2018-May-16 12:29N 53°33' E 009°55'0 0.0
2018-May-16 11:59N 53°33' E 009°55'0 0.0
2018-May-16 11:29N 53°33' E 009°55'0 0.0
2018-May-16 10:59N 53°33' E 009°55'0 0.0
2018-May-16 10:29N 53°33' E 009°55'0 0.0
2018-May-16 09:59N 53°33' E 009°55'0 0.0
2018-May-16 09:29N 53°33' E 009°55'0 0.0
2018-May-16 08:59N 53°33' E 009°55'0 0.0
2018-May-16 08:29N 53°33' E 009°55'0 0.0
2018-May-16 07:59N 53°33' E 009°55'0 0.0
2018-May-16 07:28N 53°33' E 009°55'0 0.0
2018-May-16 06:58N 53°33' E 009°55'0 0.0
2018-May-16 06:28N 53°33' E 009°55'0 0.0
2018-May-16 05:58N 53°33' E 009°55'0 0.0
2018-May-16 05:28N 53°33' E 009°55'0 0.0
2018-May-16 04:58N 53°33' E 009°55'0 0.0
2018-May-16 04:28N 53°33' E 009°55'0 0.0
2018-May-16 03:58N 53°33' E 009°55'0 0.0
2018-May-16 03:28N 53°33' E 009°55'0 0.0
2018-May-16 02:58N 53°33' E 009°55'0 0.0
2018-May-16 02:28N 53°33' E 009°55'0 0.0
2018-May-16 01:58N 53°33' E 009°55'0 0.0
2018-May-16 01:28N 53°33' E 009°55'0 0.0
2018-May-16 00:58N 53°33' E 009°55'0 0.0
2018-May-16 00:28N 53°33' E 009°55'0 0.0
2018-May-15 23:58N 53°33' E 009°55'0 0.0
2018-May-15 23:28N 53°33' E 009°55'0 0.0
2018-May-15 22:58N 53°33' E 009°55'0 0.0
2018-May-15 22:28N 53°33' E 009°55'0 0.0
2018-May-15 21:58N 53°33' E 009°55'0 0.0
2018-May-15 21:28N 53°33' E 009°55'0 0.0
2018-May-15 20:58N 53°33' E 009°55'0 0.0
2018-May-15 20:28N 53°33' E 009°55'0 0.0
2018-May-15 19:58N 53°33' E 009°55'0 0.0
2018-May-15 19:28N 53°33' E 009°55'0 0.0
2018-May-15 18:58N 53°33' E 009°55'0 0.0
2018-May-15 18:28N 53°33' E 009°55'0 0.0
2018-May-15 17:58N 53°33' E 009°55'0 0.0
2018-May-15 17:28N 53°33' E 009°55'0 0.0
2018-May-15 16:58N 53°33' E 009°55'0 0.0
2018-May-15 16:28N 53°33' E 009°55'0 0.0
2018-May-15 15:58N 53°33' E 009°55'0 0.0
2018-May-15 15:28N 53°33' E 009°55'0 0.0
2018-May-15 14:58N 53°33' E 009°55'0 0.0
2018-May-15 14:28N 53°33' E 009°55'0 0.0
2018-May-15 13:55N 53°33' E 009°55'0 0.0
2018-May-15 13:28N 53°33' E 009°55'0 0.0
2018-May-15 12:58N 53°33' E 009°55'0 0.0
2018-May-15 12:25N 53°33' E 009°55'0 0.0
2018-May-15 11:58N 53°33' E 009°55'0 0.0
2018-May-15 11:28N 53°33' E 009°55'0 0.0
2018-May-15 10:58N 53°33' E 009°55'0 0.0
2018-May-15 10:28N 53°33' E 009°55'0 0.0
2018-May-15 09:58N 53°33' E 009°55'0 0.0
2018-May-15 09:28N 53°33' E 009°55'0 0.0
2018-May-15 08:58N 53°33' E 009°55'0 0.0
2018-May-15 08:28N 53°33' E 009°55'0 0.0
2018-May-15 07:58N 53°33' E 009°55'0 0.0
2018-May-15 07:28N 53°33' E 009°55'0 0.0
2018-May-15 06:58N 53°33' E 009°55'0 0.0
2018-May-15 06:28N 53°33' E 009°55'0 0.2
2018-May-15 06:00N 53°33' E 009°56'0 0.0
2018-May-15 05:30N 53°33' E 009°56'0 0.0
2018-May-15 05:00N 53°33' E 009°56'0 0.0
2018-May-15 04:30N 53°33' E 009°56'0 0.0
2018-May-15 04:00N 53°33' E 009°56'0 0.0
2018-May-15 03:30N 53°33' E 009°56'0 0.0
2018-May-15 03:00N 53°33' E 009°56'0 0.0
2018-May-15 02:30N 53°33' E 009°56'0 0.0
2018-May-15 02:00N 53°33' E 009°56'0 0.0
2018-May-15 01:30N 53°33' E 009°56'0 0.0
2018-May-15 01:00N 53°33' E 009°56'0 0.0
2018-May-15 00:30N 53°33' E 009°56'0 0.0
2018-May-15 00:00N 53°33' E 009°56'0 0.0
2018-May-14 23:30N 53°33' E 009°56'0 0.0
2018-May-14 23:00N 53°33' E 009°56'0 0.0
2018-May-14 22:30N 53°33' E 009°56'0 0.0
2018-May-14 21:57N 53°33' E 009°56'0 0.0
2018-May-14 21:30N 53°33' E 009°56'0 0.0
2018-May-14 21:00N 53°33' E 009°56'0 0.0
2018-May-14 20:30N 53°33' E 009°56'0 0.0
2018-May-14 20:00N 53°33' E 009°56'0 0.0
2018-May-14 19:30N 53°33' E 009°56'0 0.0
2018-May-14 19:00N 53°33' E 009°56'0 0.0
2018-May-14 18:27N 53°33' E 009°56'0 0.0
2018-May-14 18:00N 53°33' E 009°56'0 0.0
2018-May-14 17:30N 53°33' E 009°56'0 0.0
2018-May-14 16:57N 53°33' E 009°56'0 0.0
2018-May-14 16:30N 53°33' E 009°56'0 0.0
2018-May-14 16:00N 53°33' E 009°56'0 0.0
2018-May-14 15:30N 53°33' E 009°56'0 0.0
2018-May-14 15:00N 53°33' E 009°56'0 0.0
2018-May-14 14:30N 53°33' E 009°56'0 0.0
2018-May-14 14:00N 53°33' E 009°56'0 0.0
2018-May-14 13:30N 53°33' E 009°56'0 0.0
2018-May-14 13:00N 53°33' E 009°56'0 0.0
2018-May-14 12:30N 53°33' E 009°56'0 0.0
2018-May-14 12:00N 53°33' E 009°56'0 0.0
2018-May-14 11:30N 53°33' E 009°56'0 0.0
2018-May-14 11:00N 53°33' E 009°56'0 0.0
2018-May-14 10:30N 53°33' E 009°56'0 0.0
2018-May-14 09:57N 53°33' E 009°56'0 0.0
2018-May-14 09:30N 53°33' E 009°56'0 0.0
2018-May-14 09:00N 53°33' E 009°56'0 0.0
2018-May-14 08:30N 53°33' E 009°56'0 0.0
2018-May-14 08:00N 53°33' E 009°56'0 0.0
2018-May-14 07:30N 53°33' E 009°56'0 0.0
2018-May-14 06:57N 53°33' E 009°56'0 0.0
2018-May-14 06:30N 53°33' E 009°56'0 0.0
2018-May-14 06:00N 53°33' E 009°56'0 0.0
2018-May-14 05:30N 53°33' E 009°56'0 0.0
2018-May-14 05:00N 53°33' E 009°56'0 0.0
2018-May-14 04:30N 53°33' E 009°56'0 0.0
2018-May-14 04:00N 53°33' E 009°56'0 0.0
2018-May-14 03:26N 53°33' E 009°56'0 0.0
2018-May-14 02:59N 53°33' E 009°56'0 0.0
2018-May-14 02:29N 53°33' E 009°56'0 0.0
2018-May-14 01:59N 53°33' E 009°56'0 0.0
2018-May-14 01:26N 53°33' E 009°56'0 0.0
2018-May-14 00:59N 53°33' E 009°56'0 0.0
2018-May-14 00:29N 53°33' E 009°56'0 0.0
2018-May-13 23:59N 53°33' E 009°56'0 0.0
2018-May-13 23:29N 53°33' E 009°56'0 0.0
2018-May-13 22:59N 53°33' E 009°56'0 0.0
2018-May-13 22:29N 53°33' E 009°56'0 0.0
2018-May-13 21:59N 53°33' E 009°56'  
Track history (hours):
 
Tides and Currents Weather Stations Pressure Air Temp Water Temp Dewpoint Dewpoint Depression Visibility Wind Speed Wind Dir Waves Ship Positions

Mercedes (Netherlands)

Brig, built 2005.

Last reported at 2018-May-23 21:59 UTC. Time now 2018-May-23 22:27 UTC.
Position N 53°33' E 008°34'.

Length 47 m; draft 3.4 m.

Type: Sailing vessel. MMSI: 244595000.

Date/timePositionNaut miles runAvg speedWind from/ knotsBaromVisibWave heightAir tempDewpointWater temp
2018-May-23 21:59N 53°33' E 008°34'0 0.0
2018-May-23 21:29N 53°33' E 008°34'0 0.0
2018-May-23 20:59N 53°33' E 008°34'0 0.0
2018-May-23 20:29N 53°33' E 008°34'0 0.0
2018-May-23 19:59N 53°33' E 008°34'0 0.0
2018-May-23 19:29N 53°33' E 008°34'0 0.0
2018-May-23 18:59N 53°33' E 008°34'0 0.0
2018-May-23 18:29N 53°33' E 008°34'0 0.0
2018-May-23 18:00N 53°33' E 008°34'0 0.9
2018-May-23 17:30N 53°33' E 008°34'4 8.3
2018-May-23 17:00N 53°36' E 008°30'510.4
2018-May-23 16:30N 53°39' E 008°24'58 8.5
2018-May-23 09:43N 53°47' E 006°47'11 6.8
2018-May-23 08:06N 53°45' E 006°28'9 7.1
2018-May-23 06:49N 53°42' E 006°14'3 7.4
2018-May-23 06:22N 53°41' E 006°08'13 7.6
2018-May-23 04:40N 53°37' E 005°48'2 7.9
2018-May-23 04:29N 53°37' E 005°45'4 8.0
2018-May-23 04:00N 53°35' E 005°39'4 8.1
2018-May-23 03:30N 53°34' E 005°33'4 8.6
2018-May-23 03:00N 53°33' E 005°26'4 8.8
2018-May-23 02:30N 53°31' E 005°19'4 8.8
2018-May-23 02:00N 53°30' E 005°12'4 8.8
2018-May-23 01:30N 53°29' E 005°05'4 8.6
2018-May-23 01:00N 53°27' E 004°58'5 9.0
2018-May-23 00:29N 53°25' E 004°51'4 8.8
2018-May-22 23:59N 53°23' E 004°44'4 9.1
2018-May-22 23:30N 53°19' E 004°41'5 9.6
2018-May-22 23:00N 53°15' E 004°38'5 9.7
2018-May-22 22:29N 53°10' E 004°34'5 9.8
2018-May-22 22:00N 53°06' E 004°32'510.1
2018-May-22 21:29N 53°01' E 004°31'5 9.8
2018-May-22 20:58N 52°56' E 004°29'4 9.5
2018-May-22 20:30N 52°51' E 004°27'7 8.9
2018-May-22 19:46N 52°45' E 004°23'3 8.6
2018-May-22 19:26N 52°43' E 004°22'4 8.3
2018-May-22 18:57N 52°39' E 004°20'4 8.1
2018-May-22 18:28N 52°35' E 004°18'4 8.2
2018-May-22 18:00N 52°31' E 004°18'4 7.3
2018-May-22 17:30N 52°28' E 004°16'4 7.4
2018-May-22 17:00N 52°24' E 004°16'4 7.1
2018-May-22 16:30N 52°21' E 004°16'3 6.9
2018-May-22 16:00N 52°17' E 004°16'4 7.0
2018-May-22 15:30N 52°14' E 004°15'3 7.0
2018-May-22 15:00N 52°10' E 004°15'4 7.6
2018-May-22 14:30N 52°06' E 004°15'1 1.2
2018-May-22 14:00N 52°06' E 004°16'0 0.0
2018-May-22 13:27N 52°06' E 004°16'0 0.0
2018-May-22 13:00N 52°06' E 004°16'0 0.0
2018-May-22 12:21N 52°06' E 004°16'0 0.0
2018-May-22 12:00N 52°06' E 004°16'0 0.0
2018-May-22 11:27N 52°06' E 004°16'0 0.0
2018-May-22 11:00N 52°06' E 004°16'0 0.0
2018-May-22 10:21N 52°06' E 004°16'0 0.0
2018-May-22 09:57N 52°06' E 004°16'0 0.0
2018-May-22 09:30N 52°06' E 004°16'0 0.0
2018-May-22 08:57N 52°06' E 004°16'0 0.0
2018-May-22 08:21N 52°06' E 004°16'0 0.0
2018-May-22 07:36N 52°06' E 004°16'0 0.1
2018-May-22 07:30N 52°06' E 004°16'0 0.0
2018-May-22 06:54N 52°06' E 004°16'0 0.0
2018-May-22 06:30N 52°06' E 004°16'0 0.0
2018-May-22 05:57N 52°06' E 004°16'0 0.0
2018-May-22 05:30N 52°06' E 004°16'0 0.0
2018-May-22 05:00N 52°06' E 004°16'0 0.0
2018-May-22 04:30N 52°06' E 004°16'0 0.0
2018-May-22 03:51N 52°06' E 004°16'0 0.0
2018-May-22 03:30N 52°06' E 004°16'0 0.0
2018-May-22 03:00N 52°06' E 004°16'0 0.0
2018-May-22 02:30N 52°06' E 004°16'0 0.0
2018-May-22 02:00N 52°06' E 004°16'0 0.0
2018-May-22 01:30N 52°06' E 004°16'0 0.0
2018-May-22 01:00N 52°06' E 004°16'0 0.0
2018-May-22 00:24N 52°06' E 004°16'0 0.0
2018-May-21 23:57N 52°06' E 004°16'0 0.0
2018-May-21 23:30N 52°06' E 004°16'0 0.0
2018-May-21 23:00N 52°06' E 004°16'0 0.0
2018-May-21 22:30N 52°06' E 004°16'0 0.0
2018-May-21 22:00N 52°06' E 004°16'0 0.0
2018-May-21 21:24N 52°06' E 004°16'0 0.0
2018-May-21 20:57N 52°06' E 004°16'0 0.0
2018-May-21 20:21N 52°06' E 004°16'0 0.0
2018-May-21 19:57N 52°06' E 004°16'0 0.0
2018-May-21 19:27N 52°06' E 004°16'0 0.0
2018-May-21 18:57N 52°06' E 004°16'0 0.0
2018-May-21 18:30N 52°06' E 004°16'0 0.0
2018-May-21 18:00N 52°06' E 004°16'0 0.0
2018-May-21 17:30N 52°06' E 004°16'0 0.0
2018-May-21 16:57N 52°06' E 004°16'0 0.0
2018-May-21 16:27N 52°06' E 004°16'0 0.0
2018-May-21 15:57N 52°06' E 004°16'0 0.1
2018-May-21 15:29N 52°06' E 004°16'0 0.0
2018-May-21 14:56N 52°06' E 004°16'0 0.0
2018-May-21 14:20N 52°06' E 004°16'0 0.0
2018-May-21 13:53N 52°06' E 004°16'0 0.0
2018-May-21 13:30N 52°06' E 004°16'0 0.1
2018-May-21 13:00N 52°06' E 004°16'3 5.5
2018-May-21 12:30N 52°07' E 004°12'3 6.3
2018-May-21 12:00N 52°06' E 004°07'0 0.6
2018-May-21 11:30N 52°07' E 004°06'2 4.3
2018-May-21 11:00N 52°07' E 004°10'2 3.4
2018-May-21 10:30N 52°08' E 004°12'1 1.1
2018-May-21 10:00N 52°08' E 004°13'1 1.6
2018-May-21 09:30N 52°07' E 004°14'2 2.8
2018-May-21 08:54N 52°06' E 004°16'0 0.0
2018-May-21 08:30N 52°06' E 004°16'0 0.0
2018-May-21 07:57N 52°06' E 004°16'0 0.0
2018-May-21 07:30N 52°06' E 004°16'0 0.0
2018-May-21 06:54N 52°06' E 004°16'0 0.0
2018-May-21 06:30N 52°06' E 004°16'0 0.0
2018-May-21 06:00N 52°06' E 004°16'0 0.0
2018-May-21 05:30N 52°06' E 004°16'0 0.0
2018-May-21 04:54N 52°06' E 004°16'0 0.0
2018-May-21 04:30N 52°06' E 004°16'0 0.0
2018-May-21 03:54N 52°06' E 004°16'0 0.0
2018-May-21 03:30N 52°06' E 004°16'0 0.0
2018-May-21 03:00N 52°06' E 004°16'0 0.0
2018-May-21 02:30N 52°06' E 004°16'0 0.0
2018-May-21 01:48N 52°06' E 004°16'0 0.0
2018-May-21 01:30N 52°06' E 004°16'0 0.0
2018-May-21 01:00N 52°06' E 004°16'0 0.0
2018-May-21 00:27N 52°06' E 004°16'0 0.0
2018-May-20 23:51N 52°06' E 004°16'0 0.0
2018-May-20 23:24N 52°06' E 004°16'0 0.0
2018-May-20 22:47N 52°06' E 004°16'0 0.0
2018-May-20 22:23N 52°06' E 004°16'0 0.0
2018-May-20 21:57N 52°06' E 004°16'0 0.0
2018-May-20 21:26N 52°06' E 004°16'0 0.0
2018-May-20 20:59N 52°06' E 004°16'0 0.0
2018-May-20 20:29N 52°06' E 004°16'0 0.0
2018-May-20 19:59N 52°06' E 004°16'0 0.0
2018-May-20 19:17N 52°06' E 004°16'0 0.0
2018-May-20 18:56N 52°06' E 004°16'0 0.0
2018-May-20 18:29N 52°06' E 004°16'0 0.0
2018-May-20 17:51N 52°06' E 004°16'0 0.0
2018-May-20 17:23N 52°06' E 004°16'0 0.0
2018-May-20 16:59N 52°06' E 004°16'0 0.0
2018-May-20 16:29N 52°06' E 004°16'0 0.0
2018-May-20 15:59N 52°06' E 004°16'0 0.1
2018-May-20 15:29N 52°06' E 004°16'0 0.0
2018-May-20 14:59N 52°06' E 004°16'0 0.0
2018-May-20 14:26N 52°06' E 004°16'0 0.0
2018-May-20 13:59N 52°06' E 004°16'0 0.0
2018-May-20 13:26N 52°06' E 004°16'0 0.0
2018-May-20 13:00N 52°06' E 004°16'2 4.9
2018-May-20 12:30N 52°06' E 004°12'3 6.4
2018-May-20 12:00N 52°04' E 004°08'2 4.1
2018-May-20 11:30N 52°03' E 004°05'2 3.3
2018-May-20 11:00N 52°05' E 004°03'3 5.5
2018-May-20 10:30N 52°05' E 004°08'3 5.0
2018-May-20 10:00N 52°06' E 004°11'2 3.9
2018-May-20 09:30N 52°07' E 004°14'2 3.1
2018-May-20 08:58N 52°06' E 004°16'0 0.0
2018-May-20 08:31N 52°06' E 004°16'0 0.0
2018-May-20 08:01N 52°06' E 004°16'0 0.0
2018-May-20 07:28N 52°06' E 004°16'0 0.0
2018-May-20 07:00N 52°06' E 004°16'0 0.0
2018-May-20 06:24N 52°06' E 004°16'0 0.0
2018-May-20 06:00N 52°06' E 004°16'0 0.0
2018-May-20 05:30N 52°06' E 004°16'0 0.0
2018-May-20 05:00N 52°06' E 004°16'0 0.0
2018-May-20 04:30N 52°06' E 004°16'0 0.0
2018-May-20 04:00N 52°06' E 004°16'0 0.0
2018-May-20 03:30N 52°06' E 004°16'0 0.0
2018-May-20 03:00N 52°06' E 004°16'0 0.0
2018-May-20 02:30N 52°06' E 004°16'0 0.0
2018-May-20 02:00N 52°06' E 004°16'0 0.0
2018-May-20 01:30N 52°06' E 004°16'0 0.0
2018-May-20 01:00N 52°06' E 004°16'0 0.0
2018-May-20 00:30N 52°06' E 004°16'0 0.0
2018-May-19 23:57N 52°06' E 004°16'0 0.0
2018-May-19 23:30N 52°06' E 004°16'0 0.0
2018-May-19 22:54N 52°06' E 004°16'0 0.0
2018-May-19 22:30N 52°06' E 004°16'0 0.0
2018-May-19 22:00N 52°06' E 004°16'0 0.0
2018-May-19 21:30N 52°06' E 004°16'0 0.0
2018-May-19 21:00N 52°06' E 004°16'0 0.0
2018-May-19 20:30N 52°06' E 004°16'0 0.0
2018-May-19 20:00N 52°06' E 004°16'0 0.0
2018-May-19 19:30N 52°06' E 004°16'0 0.0
2018-May-19 19:00N 52°06' E 004°16'0 0.1
2018-May-19 18:27N 52°06' E 004°16'0 0.1
2018-May-19 18:00N 52°06' E 004°16'0 0.0
2018-May-19 17:30N 52°06' E 004°16'0 0.0
2018-May-19 16:57N 52°06' E 004°16'0 0.0
2018-May-19 16:30N 52°06' E 004°16'0 0.0
2018-May-19 16:00N 52°06' E 004°16'0 0.1
2018-May-19 15:30N 52°06' E 004°16'0 0.0
2018-May-19 15:00N 52°06' E 004°16'0 0.0
2018-May-19 14:27N 52°06' E 004°16'0 0.0
2018-May-19 14:00N 52°06' E 004°16'0 0.0
2018-May-19 13:30N 52°06' E 004°16'0 0.2
2018-May-19 13:00N 52°06' E 004°16'3 5.8
2018-May-19 12:30N 52°06' E 004°11'3 6.8
2018-May-19 12:00N 52°03' E 004°07'2 4.1
2018-May-19 11:31N 52°02' E 004°06'2 4.8
2018-May-19 11:00N 52°03' E 004°08'2 4.6
2018-May-19 10:30N 52°05' E 004°11'2 3.9
2018-May-19 10:00N 52°06' E 004°13'1 2.0
2018-May-19 09:30N 52°07' E 004°14'1 2.6
2018-May-19 08:56N 52°06' E 004°16'0 0.0
2018-May-19 08:29N 52°06' E 004°16'0 0.0
2018-May-19 07:53N 52°06' E 004°16'0 0.0
2018-May-19 07:29N 52°06' E 004°16'0 0.0
2018-May-19 06:56N 52°06' E 004°16'0 0.0
2018-May-19 04:47N 52°06' E 004°16'0 0.0
2018-May-19 04:26N 52°06' E 004°16'0 0.0
2018-May-19 03:59N 52°06' E 004°16'0 0.0
2018-May-19 03:26N 52°06' E 004°16'0 0.0
2018-May-19 02:53N 52°06' E 004°16'0 0.0
2018-May-19 02:29N 52°06' E 004°16'0 0.0
2018-May-19 01:41N 52°06' E 004°16'0 0.0
2018-May-19 01:29N 52°06' E 004°16'0 0.0
2018-May-19 00:47N 52°06' E 004°16'0 0.0
2018-May-19 00:23N 52°06' E 004°16'0 0.0
2018-May-18 23:59N 52°06' E 004°16'0 0.0
2018-May-18 23:29N 52°06' E 004°16'0 0.0
2018-May-18 22:50N 52°06' E 004°16'0 0.0
2018-May-18 22:29N 52°06' E 004°16'0 0.0
2018-May-18 21:53N 52°06' E 004°16'0 0.0
2018-May-18 21:26N 52°06' E 004°16'0 0.0
2018-May-18 20:56N 52°06' E 004°16'0 0.0
2018-May-18 20:23N 52°06' E 004°16'0 0.0
2018-May-18 19:53N 52°06' E 004°16'0 0.0
2018-May-18 19:29N 52°06' E 004°16'0 0.0
2018-May-18 18:56N 52°06' E 004°16'0 0.0
2018-May-18 18:23N 52°06' E 004°16'0 0.0
2018-May-18 17:59N 52°06' E 004°16'0 0.0
2018-May-18 17:20N 52°06' E 004°16'0 0.0
2018-May-18 16:59N 52°06' E 004°16'0 0.0
2018-May-18 16:29N 52°06' E 004°16'0 0.0
2018-May-18 15:56N 52°06' E 004°16'0 0.0
2018-May-18 15:29N 52°06' E 004°16'0 0.0
2018-May-18 14:47N 52°06' E 004°16'0 0.0
2018-May-18 14:11N 52°06' E 004°16'0 0.0
2018-May-18 13:59N 52°06' E 004°16'0 0.0
2018-May-18 13:29N 52°06' E 004°16'0 0.0
2018-May-18 12:44N 52°06' E 004°16'0 0.0
2018-May-18 12:26N 52°06' E 004°16'0 0.0
2018-May-18 11:35N 52°06' E 004°16'0 0.1
2018-May-18 11:29N 52°06' E 004°16'0 0.0
2018-May-18 10:56N 52°06' E 004°16'0 0.0
2018-May-18 10:29N 52°06' E 004°16'0 0.0
2018-May-18 09:59N 52°06' E 004°16'0 0.0
2018-May-18 09:29N 52°06' E 004°16'0 0.0
2018-May-18 08:59N 52°06' E 004°16'0 0.0
2018-May-18 08:29N 52°06' E 004°16'0 0.0
2018-May-18 07:59N 52°06' E 004°16'0 0.0
2018-May-18 07:29N 52°06' E 004°16'0 0.0
2018-May-18 06:59N 52°06' E 004°16'0 0.0
2018-May-18 06:29N 52°06' E 004°16'0 0.0
2018-May-18 05:53N 52°06' E 004°16'0 0.0
2018-May-18 05:29N 52°06' E 004°16'0 0.0
2018-May-18 04:59N 52°06' E 004°16'0 0.0
2018-May-18 04:28N 52°06' E 004°16'0 0.0
2018-May-18 03:58N 52°06' E 004°16'0 0.0
2018-May-18 03:28N 52°06' E 004°16'0 0.0
2018-May-18 03:00N 52°06' E 004°16'3 6.7
2018-May-18 02:30N 52°09' E 004°14'5 9.3
2018-May-18 02:00N 52°13' E 004°10'5 9.5
2018-May-18 01:30N 52°17' E 004°08'5 9.8
2018-May-18 01:00N 52°22' E 004°06'5 9.2
2018-May-18 00:30N 52°27' E 004°08'6 9.4
2018-May-17 23:50N 52°33' E 004°06'6 9.8
2018-May-17 23:11N 52°39' E 004°02'97 8.5
2018-May-17 11:47N 53°46' E 005°58'82 7.7
2018-May-17 01:14N 54°01' E 008°14'2 6.8
2018-May-17 01:00N 54°01' E 008°17'3 5.7
2018-May-17 00:25N 53°60' E 008°22'2 5.3
2018-May-16 23:58N 53°59' E 008°26'2 4.9
2018-May-16 23:29N 53°59' E 008°30'3 5.5
2018-May-16 23:00N 53°58' E 008°35'2 4.9
2018-May-16 22:30N 53°57' E 008°38'2 4.2
2018-May-16 22:00N 53°55' E 008°41'2 5.0
2018-May-16 21:30N 53°53' E 008°43'4 7.1
2018-May-16 21:01N 53°51' E 008°47'510.1
2018-May-16 20:30N 53°51' E 008°56'611.3
2018-May-16 20:00N 53°53' E 009°05'611.4
2018-May-16 19:30N 53°53' E 009°15'510.6
2018-May-16 19:00N 53°50' E 009°22'510.4
2018-May-16 18:30N 53°45' E 009°25'510.2
2018-May-16 18:00N 53°41' E 009°30'5 9.9
2018-May-16 17:30N 53°37' E 009°35'5 9.8
2018-May-16 17:00N 53°34' E 009°42'5 9.4
2018-May-16 16:30N 53°33' E 009°49'4 6.8
2018-May-16 15:59N 53°33' E 009°55'0 0.0
2018-May-16 15:29N 53°33' E 009°55'0 0.0
2018-May-16 14:59N 53°33' E 009°55'0 0.0
2018-May-16 14:29N 53°33' E 009°55'0 0.0
2018-May-16 13:59N 53°33' E 009°55'0 0.0
2018-May-16 13:29N 53°33' E 009°55'0 0.0
2018-May-16 12:59N 53°33' E 009°55'0 0.0
2018-May-16 12:29N 53°33' E 009°55'0 0.0
2018-May-16 11:59N 53°33' E 009°55'0 0.0
2018-May-16 11:29N 53°33' E 009°55'0 0.0
2018-May-16 10:59N 53°33' E 009°55'0 0.0
2018-May-16 10:29N 53°33' E 009°55'0 0.0
2018-May-16 09:59N 53°33' E 009°55'0 0.0
2018-May-16 09:29N 53°33' E 009°55'0 0.0
2018-May-16 08:59N 53°33' E 009°55'0 0.0
2018-May-16 08:29N 53°33' E 009°55'0 0.0
2018-May-16 07:59N 53°33' E 009°55'0 0.0
2018-May-16 07:28N 53°33' E 009°55'0 0.0
2018-May-16 06:58N 53°33' E 009°55'0 0.0
2018-May-16 06:28N 53°33' E 009°55'0 0.0
2018-May-16 05:58N 53°33' E 009°55'0 0.0
2018-May-16 05:28N 53°33' E 009°55'0 0.0
2018-May-16 04:58N 53°33' E 009°55'0 0.0
2018-May-16 04:28N 53°33' E 009°55'0 0.0
2018-May-16 03:58N 53°33' E 009°55'0 0.0
2018-May-16 03:28N 53°33' E 009°55'0 0.0
2018-May-16 02:58N 53°33' E 009°55'0 0.0
2018-May-16 02:28N 53°33' E 009°55'0 0.0
2018-May-16 01:58N 53°33' E 009°55'0 0.0
2018-May-16 01:28N 53°33' E 009°55'0 0.0
2018-May-16 00:58N 53°33' E 009°55'0 0.0
2018-May-16 00:28N 53°33' E 009°55'0 0.0
2018-May-15 23:58N 53°33' E 009°55'0 0.0
2018-May-15 23:28N 53°33' E 009°55'0 0.0
2018-May-15 22:58N 53°33' E 009°55'0 0.0
2018-May-15 22:28N 53°33' E 009°55'0 0.0
2018-May-15 21:58N 53°33' E 009°55'0 0.0
2018-May-15 21:28N 53°33' E 009°55'0 0.0
2018-May-15 20:58N 53°33' E 009°55'0 0.0
2018-May-15 20:28N 53°33' E 009°55'0 0.0
2018-May-15 19:58N 53°33' E 009°55'0 0.0
2018-May-15 19:28N 53°33' E 009°55'0 0.0
2018-May-15 18:58N 53°33' E 009°55'0 0.0
2018-May-15 18:28N 53°33' E 009°55'0 0.0
2018-May-15 17:58N 53°33' E 009°55'0 0.0
2018-May-15 17:28N 53°33' E 009°55'0 0.0
2018-May-15 16:58N 53°33' E 009°55'0 0.0
2018-May-15 16:28N 53°33' E 009°55'0 0.0
2018-May-15 15:58N 53°33' E 009°55'0 0.0
2018-May-15 15:28N 53°33' E 009°55'0 0.0
2018-May-15 14:58N 53°33' E 009°55'0 0.0
2018-May-15 14:28N 53°33' E 009°55'0 0.0
2018-May-15 13:55N 53°33' E 009°55'0 0.0
2018-May-15 13:28N 53°33' E 009°55'0 0.0
2018-May-15 12:58N 53°33' E 009°55'0 0.0
2018-May-15 12:25N 53°33' E 009°55'0 0.0
2018-May-15 11:58N 53°33' E 009°55'0 0.0
2018-May-15 11:28N 53°33' E 009°55'0 0.0
2018-May-15 10:58N 53°33' E 009°55'0 0.0
2018-May-15 10:28N 53°33' E 009°55'0 0.0
2018-May-15 09:58N 53°33' E 009°55'0 0.0
2018-May-15 09:28N 53°33' E 009°55'0 0.0
2018-May-15 08:58N 53°33' E 009°55'0 0.0
2018-May-15 08:28N 53°33' E 009°55'0 0.0
2018-May-15 07:58N 53°33' E 009°55'0 0.0
2018-May-15 07:28N 53°33' E 009°55'0 0.0
2018-May-15 06:58N 53°33' E 009°55'0 0.0
2018-May-15 06:28N 53°33' E 009°55'0 0.2
2018-May-15 06:00N 53°33' E 009°56'0 0.0
2018-May-15 05:30N 53°33' E 009°56'0 0.0
2018-May-15 05:00N 53°33' E 009°56'0 0.0
2018-May-15 04:30N 53°33' E 009°56'0 0.0
2018-May-15 04:00N 53°33' E 009°56'0 0.0
2018-May-15 03:30N 53°33' E 009°56'0 0.0
2018-May-15 03:00N 53°33' E 009°56'0 0.0
2018-May-15 02:30N 53°33' E 009°56'0 0.0
2018-May-15 02:00N 53°33' E 009°56'0 0.0
2018-May-15 01:30N 53°33' E 009°56'0 0.0
2018-May-15 01:00N 53°33' E 009°56'0 0.0
2018-May-15 00:30N 53°33' E 009°56'0 0.0
2018-May-15 00:00N 53°33' E 009°56'0 0.0
2018-May-14 23:30N 53°33' E 009°56'0 0.0
2018-May-14 23:00N 53°33' E 009°56'0 0.0
2018-May-14 22:30N 53°33' E 009°56'0 0.0
2018-May-14 21:57N 53°33' E 009°56'0 0.0
2018-May-14 21:30N 53°33' E 009°56'0 0.0
2018-May-14 21:00N 53°33' E 009°56'0 0.0
2018-May-14 20:30N 53°33' E 009°56'0 0.0
2018-May-14 20:00N 53°33' E 009°56'0 0.0
2018-May-14 19:30N 53°33' E 009°56'0 0.0
2018-May-14 19:00N 53°33' E 009°56'0 0.0
2018-May-14 18:27N 53°33' E 009°56'0 0.0
2018-May-14 18:00N 53°33' E 009°56'0 0.0
2018-May-14 17:30N 53°33' E 009°56'0 0.0
2018-May-14 16:57N 53°33' E 009°56'0 0.0
2018-May-14 16:30N 53°33' E 009°56'0 0.0
2018-May-14 16:00N 53°33' E 009°56'0 0.0
2018-May-14 15:30N 53°33' E 009°56'0 0.0
2018-May-14 15:00N 53°33' E 009°56'0 0.0
2018-May-14 14:30N 53°33' E 009°56'0 0.0
2018-May-14 14:00N 53°33' E 009°56'0 0.0
2018-May-14 13:30N 53°33' E 009°56'0 0.0
2018-May-14 13:00N 53°33' E 009°56'0 0.0
2018-May-14 12:30N 53°33' E 009°56'0 0.0
2018-May-14 12:00N 53°33' E 009°56'0 0.0
2018-May-14 11:30N 53°33' E 009°56'0 0.0
2018-May-14 11:00N 53°33' E 009°56'0 0.0
2018-May-14 10:30N 53°33' E 009°56'0 0.0
2018-May-14 09:57N 53°33' E 009°56'0 0.0
2018-May-14 09:30N 53°33' E 009°56'0 0.0
2018-May-14 09:00N 53°33' E 009°56'0 0.0
2018-May-14 08:30N 53°33' E 009°56'0 0.0
2018-May-14 08:00N 53°33' E 009°56'0 0.0
2018-May-14 07:30N 53°33' E 009°56'0 0.0
2018-May-14 06:57N 53°33' E 009°56'0 0.0
2018-May-14 06:30N 53°33' E 009°56'0 0.0
2018-May-14 06:00N 53°33' E 009°56'0 0.0
2018-May-14 05:30N 53°33' E 009°56'0 0.0
2018-May-14 05:00N 53°33' E 009°56'0 0.0
2018-May-14 04:30N 53°33' E 009°56'0 0.0
2018-May-14 04:00N 53°33' E 009°56'0 0.0
2018-May-14 03:26N 53°33' E 009°56'0 0.0
2018-May-14 02:59N 53°33' E 009°56'0 0.0
2018-May-14 02:29N 53°33' E 009°56'0 0.0
2018-May-14 01:59N 53°33' E 009°56'0 0.0
2018-May-14 01:26N 53°33' E 009°56'0 0.0
2018-May-14 00:59N 53°33' E 009°56'0 0.0
2018-May-14 00:29N 53°33' E 009°56'0 0.0
2018-May-13 23:59N 53°33' E 009°56'0 0.0
2018-May-13 23:29N 53°33' E 009°56'0 0.0
2018-May-13 22:59N 53°33' E 009°56'0 0.0
2018-May-13 22:29N 53°33' E 009°56'0 0.0
2018-May-13 21:59N 53°33' E 009°56'  

Dump ship's entire track history